Main page
METAR-TAF:

METAR-TAF

Airports :

Exeter Airport

Exeter, England

latitude: 50-44N, longitude: 003-25W, elevation: 30 m

Current weather observation

The report was made 11 minutes ago, at 05:20 UTC
Wind 1 kt from variable directions
Temperature 13°C
Humidity 88%
Pressure 1016 hPa
Visibility 10 km or more
Few clouds at a height of 3000 ft

METAR: EGTE 170520Z VRB01KT 9999 FEW030 13/11 Q1016

Time: 06:31 (05:31 UTC)

Forecast

The report was made 6 hours and 37 minutes ago, at 22:54 UTC
Forecast valid from 17 at 00 UTC to 17 at 09 UTC
Wind 5 kt from variable directions
Visibility 10 km or more
Few clouds at a height of 3000 ft

TAF: EGTE 162254Z 1700/1709 VRB05KT 9999 FEW030

Weather observations and forecasts of more than 4000 airports (METAR and TAF reports).

The available stations are represented by yellow and red dots on the map.

Hover mouse over dot to see the name of the station.

Then click to see weather observations and forecasts.

To change the map : click on the green buttons with a black cross to zoom in, on the green button with a dash to zoom out, or on the green arrows for adjacent maps.


METAR-TAF: